Time;durP1;ratioP1;P1;durP2;ratioP2;P2;SDS_P1;SDS_P2;PMS_P1;PMS_P2;Temp;Humidity;BMP_temperature;BMP_pressure;BME280_temperature;BME280_humidity;BME280_pressure;Samples;Min_cycle;Max_cycle;Signal;HPM_P1;HPM_P2
2022/03/27 00:01:07;;;;;;;12.10;4.17;;;;;;;2.67;53.51;100201.12;2110051;84;20955;-82
2022/03/27 00:04:07;;;;;;;12.37;5.20;;;;;;;2.64;53.70;100203.50;2124406;83;21350;-82
2022/03/27 00:07:08;;;;;;;15.80;6.60;;;;;;;2.51;53.86;100217.25;2121635;83;21002;-82
2022/03/27 00:10:08;;;;;;;16.47;6.27;;;;;;;2.36;54.15;100221.00;2120900;84;21338;-81
2022/03/27 00:13:09;;;;;;;10.33;4.30;;;;;;;2.25;54.27;100209.09;2112213;83;20911;-82
2022/03/27 00:16:10;;;;;;;9.93;3.57;;;;;;;2.08;54.40;100209.66;2120792;84;20919;-81
2022/03/27 00:19:13;;;;;;;11.50;4.57;;;;;;;1.97;54.58;100206.37;2121302;84;21047;-82
2022/03/27 00:22:13;;;;;;;13.73;5.87;;;;;;;1.97;54.76;100214.09;2119657;84;20963;-82
2022/03/27 00:25:14;;;;;;;12.37;5.57;;;;;;;1.87;54.81;100216.45;2118163;84;21003;-82
2022/03/27 00:28:14;;;;;;;15.57;6.20;;;;;;;1.73;54.92;100221.41;2111339;84;20986;-82
2022/03/27 00:31:15;;;;;;;20.97;8.50;;;;;;;1.61;55.14;100217.61;2117134;84;20939;-82
2022/03/27 00:34:18;;;;;;;37.93;15.93;;;;;;;1.50;55.42;100219.84;2117948;84;21316;-82
2022/03/27 00:37:18;;;;;;;17.63;7.87;;;;;;;1.41;55.73;100217.91;2115890;84;21062;-82
2022/03/27 00:40:19;;;;;;;14.07;6.50;;;;;;;1.38;56.15;100226.31;2106881;83;20962;-82
2022/03/27 00:43:20;;;;;;;16.10;6.37;;;;;;;1.36;56.83;100229.56;2118592;84;20979;-82
2022/03/27 00:46:20;;;;;;;12.40;5.20;;;;;;;1.27;56.88;100228.52;2110660;84;20967;-82
2022/03/27 00:49:21;;;;;;;14.57;6.53;;;;;;;1.26;56.83;100226.34;2122979;83;21011;-82
2022/03/27 00:52:21;;;;;;;17.80;7.03;;;;;;;1.07;56.69;100220.69;2119883;84;20942;-82
2022/03/27 00:55:22;;;;;;;21.90;7.33;;;;;;;0.94;57.07;100234.75;2114203;84;21342;-82
2022/03/27 00:58:23;;;;;;;22.50;8.30;;;;;;;0.87;57.19;100231.23;2120734;84;21366;-83
2022/03/27 01:01:26;;;;;;;18.93;7.07;;;;;;;0.74;57.23;100231.10;2124499;84;21401;-82
2022/03/27 01:04:27;;;;;;;22.93;7.80;;;;;;;0.64;57.46;100227.87;2112875;83;20979;-82
2022/03/27 01:07:27;;;;;;;19.70;7.83;;;;;;;0.52;57.64;100234.68;2122474;83;21366;-82
2022/03/27 01:10:28;;;;;;;26.87;10.57;;;;;;;0.43;58.08;100228.88;2118369;83;20935;-82
2022/03/27 01:13:28;;;;;;;25.73;11.33;;;;;;;0.43;58.28;100234.01;2120236;84;20967;-82
2022/03/27 01:16:30;;;;;;;94.57;32.10;;;;;;;0.36;58.30;100238.19;2118672;84;21014;-82
2022/03/27 01:19:31;;;;;;;165.10;60.03;;;;;;;0.26;58.53;100243.43;2119146;84;20987;-82
2022/03/27 01:22:32;;;;;;;163.37;58.70;;;;;;;0.25;58.79;100242.92;2123996;83;21007;-82
2022/03/27 01:25:33;;;;;;;139.57;51.37;;;;;;;0.23;58.96;100250.52;2111809;84;20954;-82
2022/03/27 01:28:33;;;;;;;78.93;29.23;;;;;;;0.15;58.92;100262.28;2118131;84;21010;-82
2022/03/27 01:31:34;;;;;;;44.70;16.50;;;;;;;0.03;59.33;100262.25;2111539;84;21026;-82
2022/03/27 01:34:34;;;;;;;36.90;13.37;;;;;;;-0.03;59.61;100257.52;2120528;83;20991;-82
2022/03/27 01:37:35;;;;;;;27.60;10.93;;;;;;;-0.08;59.94;100257.94;2125990;84;21417;-82
2022/03/27 01:40:36;;;;;;;22.23;8.50;;;;;;;-0.12;60.09;100260.66;2125338;84;20915;-82
2022/03/27 01:43:36;;;;;;;31.73;11.73;;;;;;;-0.17;60.19;100265.84;2115282;83;20951;-82
2022/03/27 01:46:37;;;;;;;42.47;15.73;;;;;;;-0.23;60.21;100278.20;2125867;84;20943;-82
2022/03/27 01:49:38;;;;;;;44.33;17.60;;;;;;;-0.29;60.47;100273.88;2125181;84;21106;-82
2022/03/27 01:52:38;;;;;;;44.70;15.83;;;;;;;-0.33;60.83;100275.31;2109954;84;20948;-82
2022/03/27 01:55:39;;;;;;;38.17;15.10;;;;;;;-0.34;60.96;100282.50;2118941;84;21322;-82
2022/03/27 01:58:39;;;;;;;36.00;13.67;;;;;;;-0.37;61.16;100282.27;2115368;84;20995;-82
2022/03/27 02:01:40;;;;;;;28.00;11.60;;;;;;;-0.40;61.31;100280.75;2114044;84;20911;-82
2022/03/27 02:04:40;;;;;;;21.50;9.43;;;;;;;-0.40;61.41;100284.98;2118642;84;20947;-82
2022/03/27 02:07:45;;;;;;;22.10;9.57;;;;;;;-0.38;61.30;100281.77;2119530;84;21120;-82
2022/03/27 02:10:43;;;;;;;17.43;8.50;;;;;;;-0.48;61.36;100280.55;2110747;84;21026;-82
2022/03/27 02:13:44;;;;;;;23.70;8.53;;;;;;;-0.52;61.43;100291.73;2117367;84;21010;-82
2022/03/27 02:16:44;;;;;;;17.53;8.27;;;;;;;-0.48;61.55;100284.78;2119048;84;20955;-82
2022/03/27 02:19:45;;;;;;;15.90;7.33;;;;;;;-0.50;61.48;100283.77;2112013;84;20947;-82
2022/03/27 02:22:45;;;;;;;15.43;7.53;;;;;;;-0.54;61.39;100290.71;2120483;84;21386;-82
2022/03/27 02:25:46;;;;;;;14.73;6.30;;;;;;;-0.58;61.36;100296.38;2119207;84;20962;-82
2022/03/27 02:28:46;;;;;;;14.40;5.43;;;;;;;-0.69;61.59;100300.28;2117466;84;21036;-82
2022/03/27 02:31:47;;;;;;;12.27;5.43;;;;;;;-0.72;61.61;100299.14;2111214;84;21007;-82
2022/03/27 02:34:47;;;;;;;16.50;6.10;;;;;;;-0.81;61.82;100300.59;2114758;83;20942;-82
2022/03/27 02:37:48;;;;;;;16.30;5.87;;;;;;;-0.81;62.08;100305.72;2118406;84;21362;-82
2022/03/27 02:40:48;;;;;;;17.30;7.57;;;;;;;-0.80;61.90;100301.09;2120011;84;20999;-82
2022/03/27 02:43:49;;;;;;;13.83;5.63;;;;;;;-0.78;62.13;100308.52;2119409;84;20928;-83
2022/03/27 02:46:50;;;;;;;261.30;145.67;;;;;;;-0.84;61.93;100302.91;2120695;84;20985;-82
2022/03/27 02:49:50;;;;;;;53.73;26.87;;;;;;;-0.84;62.23;100309.32;2103470;84;21003;-82
2022/03/27 02:52:52;;;;;;;23.40;11.63;;;;;;;-0.82;62.29;100307.77;2093788;85;20991;-82
2022/03/27 02:55:54;;;;;;;27.33;10.13;;;;;;;-0.79;62.29;100313.53;2084833;85;21045;-82
2022/03/27 02:58:54;;;;;;;14.37;7.77;;;;;;;-0.85;62.22;100303.69;2095737;84;21303;-83
2022/03/27 03:01:55;;;;;;;16.53;7.87;;;;;;;-0.91;62.50;100313.41;2095839;84;20963;-83
2022/03/27 03:04:55;;;;;;;14.90;6.93;;;;;;;-0.91;62.54;100315.98;2094837;84;20951;-82
2022/03/27 03:07:56;;;;;;;16.90;7.43;;;;;;;-0.93;62.65;100317.52;2092039;85;21006;-83
2022/03/27 03:10:57;;;;;;;13.80;6.03;;;;;;;-0.93;62.43;100321.37;2094883;85;21342;-82
2022/03/27 03:13:57;;;;;;;14.10;5.83;;;;;;;-1.00;62.39;100322.93;2093875;84;21346;-82
2022/03/27 03:16:58;;;;;;;16.53;5.97;;;;;;;-1.06;62.73;100327.17;2095567;84;20975;-82
2022/03/27 03:19:59;;;;;;;17.87;5.50;;;;;;;-1.08;62.85;100327.83;2095605;85;20935;-82
2022/03/27 03:22:59;;;;;;;15.33;5.93;;;;;;;-1.11;62.89;100327.58;2092792;84;21014;-82
2022/03/27 03:26:00;;;;;;;14.63;5.73;;;;;;;-1.12;62.89;100334.75;2094639;85;20995;-82
2022/03/27 03:29:01;;;;;;;11.87;5.40;;;;;;;-1.13;63.06;100331.30;2092137;85;21086;-82
2022/03/27 03:32:02;;;;;;;12.63;5.00;;;;;;;-1.11;63.06;100333.98;2092020;85;21046;-82
2022/03/27 03:35:03;;;;;;;14.50;5.23;;;;;;;-1.06;63.16;100335.25;2092326;85;21406;-83
2022/03/27 03:38:03;;;;;;;8.90;5.40;;;;;;;-1.11;63.14;100341.28;2091838;85;20995;-82
2022/03/27 03:41:05;;;;;;;13.17;4.30;;;;;;;-1.15;63.17;100340.53;2092307;85;20974;-82
2022/03/27 03:44:05;;;;;;;11.63;4.97;;;;;;;-1.17;63.05;100343.73;2093731;85;21023;-82
2022/03/27 03:47:06;;;;;;;9.50;4.43;;;;;;;-1.18;63.23;100346.69;2094352;84;21060;-83
2022/03/27 03:50:06;;;;;;;17.20;5.13;;;;;;;-1.16;63.32;100347.70;2111135;83;21014;-83
2022/03/27 03:53:07;;;;;;;10.97;4.50;;;;;;;-1.13;63.31;100346.67;2121536;84;21042;-83
2022/03/27 03:56:08;;;;;;;12.17;4.57;;;;;;;-1.08;63.18;100348.33;2113311;84;20931;-82
2022/03/27 03:59:09;;;;;;;13.67;4.33;;;;;;;-1.08;63.13;100353.06;2119172;84;20962;-83
2022/03/27 04:02:10;;;;;;;13.83;4.83;;;;;;;-1.10;63.21;100363.58;2119384;84;21398;-83
2022/03/27 04:05:11;;;;;;;11.97;4.33;;;;;;;-1.18;63.32;100373.97;2112169;84;21430;-83
2022/03/27 04:08:11;;;;;;;11.23;5.30;;;;;;;-1.23;63.42;100375.27;2123970;83;21089;-83
2022/03/27 04:11:16;;;;;;;12.20;5.00;;;;;;;-1.23;63.67;100371.42;2121845;84;21002;-83
2022/03/27 04:14:14;;;;;;;15.83;6.40;;;;;;;-1.20;63.59;100370.39;2114382;83;21027;-83
2022/03/27 04:17:15;;;;;;;13.73;5.33;;;;;;;-1.19;63.60;100367.95;2112213;84;21363;-83
2022/03/27 04:20:17;;;;;;;22.40;9.60;;;;;;;-1.21;63.73;100374.62;2111310;83;20986;-83
2022/03/27 04:23:18;;;;;;;23.57;9.90;;;;;;;-1.20;63.58;100388.33;2119431;84;21098;-83
2022/03/27 04:26:18;;;;;;;13.53;5.70;;;;;;;-1.26;63.68;100385.26;2118185;84;21045;-81
2022/03/27 04:29:19;;;;;;;10.30;5.63;;;;;;;-1.38;63.72;100380.02;2110855;83;21011;-82
2022/03/27 04:32:20;;;;;;;15.87;5.90;;;;;;;-1.41;64.03;100381.94;2118677;84;20943;-82
2022/03/27 04:35:20;;;;;;;15.03;6.30;;;;;;;-1.42;64.05;100383.09;2118080;83;20982;-82
2022/03/27 04:38:20;;;;;;;17.53;6.03;;;;;;;-1.43;64.20;100386.04;2112529;84;20989;-83
2022/03/27 04:41:21;;;;;;;13.40;6.27;;;;;;;-1.42;64.38;100389.50;2116650;84;21410;-83
2022/03/27 04:44:21;;;;;;;12.50;5.27;;;;;;;-1.40;64.36;100385.40;2116271;84;21935;-82
2022/03/27 04:47:22;;;;;;;15.63;5.60;;;;;;;-1.39;64.37;100380.41;2117706;84;21343;-83
2022/03/27 04:50:22;;;;;;;26.23;6.03;;;;;;;-1.37;64.23;100381.42;2123443;83;21080;-83
2022/03/27 04:56:31;;;;;;;13.83;5.40;;;;;;;-1.24;64.18;100388.84;2089683;84;21046;-83
2022/03/27 04:59:32;;;;;;;22.07;12.40;;;;;;;-1.15;64.07;100394.72;2118204;84;21097;-82
2022/03/27 05:02:32;;;;;;;18.23;7.73;;;;;;;-1.05;64.12;100395.98;2115934;84;21018;-82
2022/03/27 05:05:33;;;;;;;15.40;6.10;;;;;;;-0.91;63.98;100391.98;2113113;84;21014;-81
2022/03/27 05:08:34;;;;;;;16.97;6.03;;;;;;;-0.76;63.84;100395.44;2113671;83;21546;-81
2022/03/27 05:14:36;;;;;;;20.13;6.33;;;;;;;-0.35;63.25;100396.17;2092009;84;21075;-81
2022/03/27 05:17:37;;;;;;;13.03;6.57;;;;;;;-0.21;62.91;100395.98;2114063;84;21390;-81
2022/03/27 05:20:38;;;;;;;18.63;8.13;;;;;;;-0.04;62.86;100401.14;2101363;84;21962;-81
2022/03/27 05:23:39;;;;;;;16.47;8.70;;;;;;;0.16;62.64;100404.91;2112225;83;20958;-81
2022/03/27 05:26:39;;;;;;;43.97;23.27;;;;;;;0.38;62.55;100403.59;2120608;84;20958;-81
2022/03/27 05:29:40;;;;;;;30.37;16.47;;;;;;;0.57;62.63;100407.17;2120307;84;20986;-82
2022/03/27 05:32:40;;;;;;;18.97;9.87;;;;;;;0.81;62.75;100410.30;2111652;83;20980;-81
2022/03/27 05:35:41;;;;;;;26.10;11.40;;;;;;;1.07;62.89;100415.24;2117983;84;20998;-81
2022/03/27 05:38:41;;;;;;;27.30;12.30;;;;;;;1.30;62.33;100413.96;2110887;84;21096;-81
2022/03/27 05:41:42;;;;;;;26.93;13.97;;;;;;;1.50;62.32;100411.55;2119328;84;20943;-81
2022/03/27 05:47:45;;;;;;;26.17;12.37;;;;;;;1.90;60.70;100418.80;2096866;84;21160;-82
2022/03/27 05:50:45;;;;;;;26.03;12.27;;;;;;;2.12;60.44;100419.02;2118505;84;21393;-83
2022/03/27 05:53:46;;;;;;;21.43;10.57;;;;;;;2.38;59.89;100423.01;2113495;84;21082;-81
2022/03/27 05:56:46;;;;;;;21.57;10.70;;;;;;;2.62;59.51;100426.80;2125104;84;21374;-82
2022/03/27 05:59:47;;;;;;;25.30;12.07;;;;;;;2.84;59.02;100427.46;2121180;84;20939;-81
2022/03/27 06:02:48;;;;;;;23.27;11.27;;;;;;;3.02;58.58;100428.69;2117832;84;21038;-82
2022/03/27 06:05:49;;;;;;;15.27;8.70;;;;;;;3.24;58.68;100432.69;2119437;84;21005;-82
2022/03/27 06:08:50;;;;;;;14.07;8.07;;;;;;;3.46;58.33;100427.73;2114419;84;21109;-81
2022/03/27 06:11:51;;;;;;;13.23;7.97;;;;;;;3.76;58.00;100435.30;2125923;84;20923;-81
2022/03/27 06:14:51;;;;;;;17.73;7.50;;;;;;;4.01;57.57;100435.17;2126170;84;20958;-81
2022/03/27 06:17:52;;;;;;;12.83;5.40;;;;;;;4.23;56.94;100443.86;2126314;84;20990;-81
2022/03/27 06:20:53;;;;;;;13.70;6.60;;;;;;;4.33;55.11;100444.92;2125328;84;20962;-82
2022/03/27 06:23:53;;;;;;;10.70;6.07;;;;;;;4.45;55.42;100441.83;2110638;84;21082;-81
2022/03/27 06:26:54;;;;;;;11.10;5.80;;;;;;;4.50;54.24;100448.58;2118947;84;21057;-81
2022/03/27 06:29:54;;;;;;;12.83;5.70;;;;;;;4.53;54.09;100439.72;2124668;83;22035;-81
2022/03/27 06:32:55;;;;;;;11.03;4.40;;;;;;;4.60;53.67;100440.58;2125828;84;21005;-81
2022/03/27 06:35:56;;;;;;;9.90;5.07;;;;;;;4.66;53.29;100442.24;2113474;84;20994;-81
2022/03/27 06:38:56;;;;;;;16.03;4.40;;;;;;;4.69;52.70;100444.13;2121674;83;20974;-81
2022/03/27 06:41:57;;;;;;;8.10;4.17;;;;;;;4.73;52.37;100453.45;2126233;84;20998;-81
2022/03/27 06:44:57;;;;;;;7.13;3.80;;;;;;;4.79;52.61;100456.41;2123209;84;20939;-81
2022/03/27 06:47:58;;;;;;;10.03;4.63;;;;;;;4.88;51.43;100462.94;2121591;84;21043;-82
2022/03/27 06:50:58;;;;;;;8.50;3.83;;;;;;;4.97;50.92;100469.55;2108128;84;20998;-81
2022/03/27 06:54:00;;;;;;;6.93;3.70;;;;;;;5.06;50.98;100464.03;2112448;84;20963;-81
2022/03/27 06:57:01;;;;;;;8.23;3.50;;;;;;;5.17;49.01;100470.73;2120601;84;21337;-80
2022/03/27 07:03:20;;;;;;;13.80;4.00;;;;;;;5.37;48.05;100475.41;2111317;84;21434;-81
2022/03/27 07:06:23;;;;;;;6.23;3.30;;;;;;;5.48;47.14;100485.50;2119631;84;20990;-81
2022/03/27 07:12:26;;;;;;;3.90;2.77;;;;;;;5.67;45.73;100490.53;2097953;84;21349;-81
2022/03/27 07:15:27;;;;;;;7.07;3.13;;;;;;;5.73;44.41;100499.95;2111291;84;20971;-81
2022/03/27 07:18:29;;;;;;;6.00;2.97;;;;;;;5.68;43.18;100498.80;2090805;85;20912;-81
2022/03/27 07:21:29;;;;;;;7.33;3.50;;;;;;;5.80;43.93;100495.13;2116193;84;20951;-83
2022/03/27 07:24:30;;;;;;;9.70;3.17;;;;;;;6.02;43.02;100496.85;2105491;84;21380;-83
2022/03/27 07:27:31;;;;;;;7.10;3.10;;;;;;;6.11;42.34;100490.92;2107439;84;21406;-83
2022/03/27 07:30:31;;;;;;;8.13;2.63;;;;;;;6.18;41.48;100495.64;2106221;84;20919;-82
2022/03/27 07:33:32;;;;;;;8.80;4.07;;;;;;;6.31;41.40;100491.61;2092300;85;21351;-82
2022/03/27 07:36:32;;;;;;;7.77;4.07;;;;;;;6.48;41.42;100487.34;2092037;85;21043;-82
2022/03/27 07:39:33;;;;;;;4.70;2.43;;;;;;;6.60;40.88;100481.92;2107920;84;21074;-82
2022/03/27 07:42:34;;;;;;;3.47;1.90;;;;;;;6.75;39.17;100488.33;2110984;84;20955;-82
2022/03/27 07:45:36;;;;;;;6.17;2.93;;;;;;;6.88;38.33;100487.75;2121093;84;21030;-81
2022/03/27 07:48:36;;;;;;;6.30;3.50;;;;;;;6.88;35.84;100494.65;2119499;84;21101;-82
2022/03/27 07:51:37;;;;;;;5.13;2.20;;;;;;;6.88;35.84;100494.65;2100758;84;20975;-82
2022/03/27 07:54:37;;;;;;;4.63;2.23;;;;;;;6.87;37.62;100496.76;2093425;85;20962;-82
2022/03/27 07:57:38;;;;;;;4.87;1.93;;;;;;;7.09;37.75;100490.61;2093859;84;20994;-82
2022/03/27 08:00:38;;;;;;;3.17;2.07;;;;;;;7.31;37.54;100488.70;2092289;85;20947;-83
2022/03/27 08:03:39;;;;;;;4.23;1.83;;;;;;;7.45;35.55;100481.60;2092939;85;20978;-83
2022/03/27 08:09:43;;;;;;;5.63;1.97;;;;;;;7.59;35.71;100468.89;2085112;85;21118;-83
2022/03/27 08:12:43;;;;;;;3.07;1.60;;;;;;;7.71;32.52;100474.69;2095120;85;20947;-83
2022/03/27 08:15:44;;;;;;;4.57;1.70;;;;;;;7.60;32.98;100470.27;2094121;84;20966;-82
2022/03/27 08:18:45;;;;;;;2.93;2.17;;;;;;;7.80;32.12;100467.37;2092352;85;20963;-84
2022/03/27 08:21:46;;;;;;;4.30;2.13;;;;;;;7.79;30.86;100477.25;2093475;84;21469;-82
2022/03/27 08:24:47;;;;;;;5.13;2.30;;;;;;;7.82;33.04;100470.94;2091459;85;21426;-83
2022/03/27 08:27:48;;;;;;;3.53;2.23;;;;;;;7.87;32.17;100473.35;2091676;85;20970;-83
2022/03/27 08:30:48;;;;;;;7.57;2.00;;;;;;;7.85;32.21;100485.39;2092484;85;20999;-82
2022/03/27 08:33:49;;;;;;;3.50;2.17;;;;;;;7.82;31.52;100490.44;2092938;84;21315;-82
2022/03/27 08:36:50;;;;;;;3.33;1.70;;;;;;;8.02;32.94;100473.61;2086128;85;21058;-82
2022/03/27 08:39:53;;;;;;;3.63;2.10;;;;;;;8.25;32.89;100466.06;2093221;84;21381;-82
2022/03/27 08:42:53;;;;;;;4.13;1.90;;;;;;;8.58;30.69;100477.58;2094839;84;20991;-82
2022/03/27 08:45:53;;;;;;;1.80;1.40;;;;;;;8.43;30.87;100482.97;2093822;84;20939;-81
2022/03/27 08:48:56;;;;;;;2.57;1.93;;;;;;;8.30;30.40;100479.29;2091080;85;21003;-82
2022/03/27 08:51:57;;;;;;;3.93;1.87;;;;;;;8.20;30.13;100489.67;2118741;84;21429;-83
2022/03/27 08:54:57;;;;;;;3.20;1.83;;;;;;;8.27;30.79;100483.05;2114613;84;20979;-83
2022/03/27 08:57:58;;;;;;;4.87;1.60;;;;;;;8.23;30.68;100478.11;2117398;83;21010;-82
2022/03/27 09:00:59;;;;;;;3.30;1.73;;;;;;;8.13;30.15;100491.50;2117828;84;20964;-84
2022/03/27 09:04:00;;;;;;;2.90;2.10;;;;;;;8.13;30.65;100493.21;2112473;83;21113;-82
2022/03/27 09:07:01;;;;;;;8.80;3.00;;;;;;;8.30;30.68;100485.80;2114595;84;20977;-83
2022/03/27 09:10:01;;;;;;;5.80;2.33;;;;;;;8.49;31.07;100492.37;2115885;84;21468;-82
2022/03/27 09:13:02;;;;;;;4.17;1.77;;;;;;;8.73;30.54;100496.53;2119362;84;21330;-85
2022/03/27 09:16:02;;;;;;;4.87;1.80;;;;;;;8.77;29.86;100498.45;2114974;84;21330;-83
2022/03/27 09:19:03;;;;;;;4.03;1.90;;;;;;;8.76;29.50;100488.86;2118545;83;20967;-83
2022/03/27 09:22:04;;;;;;;2.90;1.80;;;;;;;8.74;30.37;100501.33;2111727;84;21398;-84
2022/03/27 09:25:04;;;;;;;4.87;1.73;;;;;;;8.84;29.77;100486.59;2112806;83;20982;-82
2022/03/27 09:28:05;;;;;;;3.80;1.80;;;;;;;9.00;29.98;100484.27;2121319;84;21078;-85
2022/03/27 09:31:05;;;;;;;3.27;1.57;;;;;;;9.06;29.59;100481.92;2117346;84;21007;-84
2022/03/27 09:34:07;;;;;;;6.60;2.10;;;;;;;9.03;29.42;100477.48;2118060;84;20989;-83
2022/03/27 09:37:08;;;;;;;2.13;1.93;;;;;;;8.97;29.89;100474.60;2119195;84;21027;-84
2022/03/27 09:40:08;;;;;;;4.00;2.00;;;;;;;8.91;29.72;100478.23;2115057;84;21022;-83
2022/03/27 09:43:11;;;;;;;3.57;1.87;;;;;;;9.02;30.51;100468.30;2118817;83;20915;-84
2022/03/27 09:46:12;;;;;;;2.70;1.90;;;;;;;9.16;29.55;100474.99;2119302;84;21430;-82
2022/03/27 09:49:13;;;;;;;4.90;1.80;;;;;;;9.22;29.28;100460.52;2119410;84;21071;-82
2022/03/27 09:52:14;;;;;;;3.87;1.63;;;;;;;9.34;29.16;100459.25;2112491;83;20995;-82
2022/03/27 09:55:16;;;;;;;3.47;1.60;;;;;;;9.30;29.27;100454.32;2120340;84;20959;-82
2022/03/27 09:58:16;;;;;;;3.17;1.57;;;;;;;9.30;28.98;100446.50;2113515;84;21023;-81
2022/03/27 10:01:17;;;;;;;4.23;2.13;;;;;;;9.36;29.72;100446.77;2117073;83;21002;-84
2022/03/27 10:04:17;;;;;;;4.87;1.73;;;;;;;9.52;29.62;100442.66;2123671;84;21045;-84
2022/03/27 10:07:18;;;;;;;3.73;1.83;;;;;;;9.67;29.25;100450.67;2119685;83;20994;-82
2022/03/27 10:10:19;;;;;;;6.07;1.80;;;;;;;9.69;29.53;100438.59;2110537;83;21503;-82
2022/03/27 10:13:20;;;;;;;3.40;2.07;;;;;;;9.92;29.76;100437.79;2117093;84;21010;-83
2022/03/27 10:16:22;;;;;;;14.50;7.50;;;;;;;10.04;29.40;100430.44;2117441;84;21018;-81
2022/03/27 10:19:22;;;;;;;6.03;2.50;;;;;;;10.04;28.56;100431.75;2118853;84;21438;-83
2022/03/27 10:22:23;;;;;;;3.67;1.90;;;;;;;10.06;28.30;100423.56;2118469;84;21002;-83
2022/03/27 10:25:23;;;;;;;3.77;1.87;;;;;;;9.90;28.15;100422.08;2108883;84;21010;-84
2022/03/27 10:28:24;;;;;;;3.70;1.93;;;;;;;9.83;28.30;100423.97;2111244;84;21013;-83
2022/03/27 10:31:24;;;;;;;4.10;2.00;;;;;;;9.71;28.18;100410.86;2114337;84;21045;-81
2022/03/27 10:34:25;;;;;;;3.33;2.10;;;;;;;9.66;28.33;100411.98;2117276;84;21425;-82
2022/03/27 10:37:25;;;;;;;2.97;1.63;;;;;;;9.75;28.42;100407.13;2110912;84;21374;-81
2022/03/27 10:40:26;;;;;;;4.60;2.00;;;;;;;9.81;28.12;100403.88;2110911;83;21042;-82
2022/03/27 10:43:26;;;;;;;3.17;1.80;;;;;;;9.85;28.30;100396.64;2119732;84;20943;-82
2022/03/27 10:46:28;;;;;;;2.83;1.80;;;;;;;9.85;28.08;100401.86;2112313;84;20955;-82
2022/03/27 10:49:29;;;;;;;3.53;1.90;;;;;;;9.84;28.31;100396.17;2125789;83;21011;-82
2022/03/27 10:52:33;;;;;;;4.00;2.40;;;;;;;9.81;28.00;100396.94;2119946;84;21002;-82
2022/03/27 10:55:33;;;;;;;4.70;1.90;;;;;;;9.81;28.12;100398.24;2118968;84;20999;-81
2022/03/27 10:58:34;;;;;;;5.00;2.00;;;;;;;9.93;28.63;100385.20;2111431;84;20939;-82
2022/03/27 11:01:34;;;;;;;5.13;2.30;;;;;;;10.21;28.78;100381.12;2111117;84;20915;-83
2022/03/27 11:04:36;;;;;;;6.00;2.30;;;;;;;10.58;28.63;100385.55;2119286;83;21046;-82
2022/03/27 11:07:36;;;;;;;5.63;2.17;;;;;;;10.68;27.43;100387.66;2119004;84;21370;-81
2022/03/27 11:10:37;;;;;;;3.77;2.00;;;;;;;10.51;27.59;100390.96;2112364;84;21056;-82
2022/03/27 11:13:39;;;;;;;5.65;2.45;;;;;;;10.40;27.24;100387.95;2113985;84;20950;-81
2022/03/27 11:16:40;;;;;;;3.03;2.20;;;;;;;10.17;27.66;100390.05;2113326;84;21374;-82
2022/03/27 11:19:41;;;;;;;4.00;2.50;;;;;;;10.11;27.51;100385.50;2111431;84;21346;-83
2022/03/27 11:22:43;;;;;;;3.73;2.20;;;;;;;10.28;28.28;100382.66;2117902;84;21017;-83
2022/03/27 11:25:46;;;;;;;4.27;2.40;;;;;;;10.34;28.37;100380.28;2116323;84;21077;-82
2022/03/27 11:28:47;;;;;;;3.25;1.70;;;;;;;10.27;27.94;100376.56;2111890;83;21041;-82
2022/03/27 11:31:49;;;;;;;4.03;2.00;;;;;;;10.41;27.85;100366.66;2119648;84;20959;-83
2022/03/27 11:34:49;;;;;;;2.67;1.73;;;;;;;10.51;27.01;100371.38;2119873;84;21044;-83
2022/03/27 11:37:50;;;;;;;4.70;2.03;;;;;;;10.43;26.82;100357.16;2120120;83;20943;-83
2022/03/27 11:40:50;;;;;;;7.27;1.90;;;;;;;10.44;26.95;100357.22;2119146;83;21046;-83
2022/03/27 11:43:51;;;;;;;5.13;2.40;;;;;;;10.44;27.63;100349.80;2119968;84;20970;-82
2022/03/27 11:46:52;;;;;;;5.20;2.27;;;;;;;10.49;27.30;100350.86;2118015;83;20907;-83
2022/03/27 11:49:54;;;;;;;3.53;2.10;;;;;;;10.47;27.49;100342.97;2126941;84;20999;-83
2022/03/27 11:52:54;;;;;;;6.57;2.33;;;;;;;10.50;27.36;100350.91;2112337;84;20990;-82
2022/03/27 11:55:55;;;;;;;3.60;1.97;;;;;;;10.37;27.37;100342.13;2120406;84;21077;-84
2022/03/27 11:58:56;;;;;;;4.40;2.40;;;;;;;10.36;27.51;100329.02;2111107;83;21019;-83
2022/03/27 12:01:57;;;;;;;4.53;2.00;;;;;;;10.52;27.86;100314.00;2112548;84;20979;-81
2022/03/27 12:04:59;;;;;;;3.60;2.20;;;;;;;10.72;27.43;100314.69;2117963;84;20950;-82
2022/03/27 12:08:00;;;;;;;4.13;1.83;;;;;;;10.71;27.61;100314.64;2111957;83;21532;-83
2022/03/27 12:11:06;;;;;;;4.15;2.12;;;;;;;10.84;27.87;100309.00;2120435;84;21092;-83
2022/03/27 12:14:03;;;;;;;4.70;2.02;;;;;;;10.97;28.06;100299.42;2114579;84;20987;-82
2022/03/27 12:17:03;;;;;;;4.28;2.30;;;;;;;11.23;28.03;100295.05;2113975;84;20963;-83
2022/03/27 12:20:08;;;;;;;4.08;2.00;;;;;;;11.43;26.97;100299.64;2111289;83;20963;-82
2022/03/27 12:29:42;;;;;;;4.25;2.20;;;;;;;11.30;26.20;100297.48;2108597;83;21358;-83
2022/03/27 12:32:44;;;;;;;6.58;2.27;;;;;;;11.19;26.76;100285.34;2122010;83;21394;-83
2022/03/27 12:35:45;;;;;;;4.58;2.08;;;;;;;11.10;27.63;100279.39;2113382;83;20958;-82
2022/03/27 12:38:45;;;;;;;3.77;2.00;;;;;;;11.06;26.54;100285.36;2121280;84;20947;-84
2022/03/27 12:41:46;;;;;;;5.17;2.50;;;;;;;11.02;27.55;100278.67;2120856;84;21054;-83
2022/03/27 12:44:46;;;;;;;4.97;2.22;;;;;;;10.95;26.75;100290.65;2112181;83;21006;-83
2022/03/27 12:47:47;;;;;;;4.15;2.25;;;;;;;10.92;27.30;100286.62;2117057;84;20974;-83
2022/03/27 12:50:47;;;;;;;2.58;1.77;;;;;;;10.90;27.31;100287.42;2120023;84;20911;-83
2022/03/27 12:53:48;;;;;;;5.08;2.10;;;;;;;10.97;27.87;100273.30;2116053;84;20946;-85
2022/03/27 12:56:48;;;;;;;3.67;2.30;;;;;;;11.15;28.03;100267.78;2123719;84;20987;-83
2022/03/27 12:59:49;;;;;;;4.85;2.60;;;;;;;11.34;27.69;100259.72;2112575;83;21318;-84
2022/03/27 13:02:49;;;;;;;2.58;2.02;;;;;;;11.40;26.85;100265.13;2120591;84;20983;-84
2022/03/27 13:05:50;;;;;;;2.58;1.95;;;;;;;11.22;26.44;100266.25;2119794;84;20987;-85
2022/03/27 13:08:50;;;;;;;7.77;2.30;;;;;;;11.10;26.25;100266.75;2120306;84;20982;-84
2022/03/27 13:11:51;;;;;;;3.85;2.08;;;;;;;11.01;26.60;100258.61;2119994;84;21041;-82
2022/03/27 13:14:51;;;;;;;3.10;1.85;;;;;;;10.99;26.77;100255.06;2119188;84;20975;-84
2022/03/27 13:17:52;;;;;;;3.55;2.20;;;;;;;11.20;27.18;100247.02;2120203;84;20995;-83
2022/03/27 13:20:52;;;;;;;1.90;1.67;;;;;;;11.32;26.95;100240.48;2125524;84;20954;-80
2022/03/27 13:23:53;;;;;;;6.92;1.95;;;;;;;11.40;27.07;100238.98;2123988;84;20959;-82
2022/03/27 13:26:54;;;;;;;3.20;2.10;;;;;;;11.43;26.89;100235.58;2114548;83;21337;-83
2022/03/27 13:29:55;;;;;;;4.25;2.30;;;;;;;11.40;26.00;100237.69;2126764;84;21010;-82
2022/03/27 13:32:56;;;;;;;4.22;1.92;;;;;;;11.40;26.31;100222.41;2126599;84;20971;-82
2022/03/27 13:35:56;;;;;;;3.17;1.85;;;;;;;11.49;25.37;100224.89;2121130;84;21302;-83
2022/03/27 13:38:57;;;;;;;4.67;2.12;;;;;;;11.40;25.72;100221.11;2121159;84;20920;-81
2022/03/27 13:45:17;;;;;;;2.87;1.80;;;;;;;11.36;26.03;100218.82;2118535;84;20991;-84
2022/03/27 13:48:17;;;;;;;5.05;2.02;;;;;;;11.42;26.10;100218.12;2118771;84;20963;-83
2022/03/27 13:51:18;;;;;;;4.30;1.80;;;;;;;11.51;26.55;100213.16;2111208;83;21023;-83
2022/03/27 13:54:19;;;;;;;3.45;2.15;;;;;;;11.61;26.33;100212.59;2119518;84;20955;-84
2022/03/27 13:57:20;;;;;;;2.95;2.05;;;;;;;11.62;25.61;100216.98;2121643;84;20951;-82
2022/03/27 14:00:21;;;;;;;4.40;1.82;;;;;;;11.51;25.80;100213.59;2112309;83;20992;-83
2022/03/27 14:03:23;;;;;;;4.70;2.22;;;;;;;11.59;26.28;100201.62;2120602;84;20979;-81
2022/03/27 14:06:23;;;;;;;4.75;2.05;;;;;;;11.68;26.22;100194.05;2113431;84;20958;-83
2022/03/27 14:09:24;;;;;;;4.20;2.08;;;;;;;11.63;25.50;100195.64;2119355;84;21022;-83
2022/03/27 14:12:24;;;;;;;4.28;2.10;;;;;;;11.60;26.01;100190.32;2119364;84;21042;-82
2022/03/27 14:15:25;;;;;;;4.53;2.67;;;;;;;11.66;26.34;100185.27;2118315;84;20989;-82
2022/03/27 14:18:25;;;;;;;4.00;2.27;;;;;;;11.66;25.67;100183.53;2119305;84;20990;-82
2022/03/27 14:21:26;;;;;;;4.85;2.62;;;;;;;11.64;25.36;100176.48;2119014;83;20982;-83
2022/03/27 14:24:27;;;;;;;9.50;2.20;;;;;;;11.61;25.77;100174.67;2119071;84;21006;-83
2022/03/27 14:27:28;;;;;;;3.12;2.22;;;;;;;11.60;25.06;100177.24;2118827;84;20986;-83